Franklin, KY (42134)

5:12 PM CDT on October 31, 2014 (GMT -0500)
Friendship Rd.- NE Cross Plains | Change Station
CLOSE
Current Station
Personal Weather Station
Location: Cross Plains, TN
Elevation: 757 ft
Nearby Weather Stations
Active Advisory: Freeze Warning

Elev 757 ft 36.57 °N, 86.67 °W | Updated 4 seconds ago

Overcast
Overcast
42.2 °F
Feels Like 36 °F
N
11.0
Wind Variable Wind from NW
Gusts 29.0 mph

Today
High -- | Low -- °F
--% Chance of Precip.
Yesterday
High -- | Low -- °F
Precip. -- in
7:08 AM 5:50 PM
First Quarter, 59% visible
Pressure 30.09 in
Visibility 10.0 miles
Clouds Scattered Clouds 4900 ft
Mostly Cloudy 6000 ft
Windchill 36 °F
Dew Point 30 °F
Humidity 63%
Rainfall 0.09 in
Snow Depth Not available.
UV 0 out of 12
Pollen .30 out of 12
Air Quality Not available.
Flu Activity Not available.
METAR KBWG 312153Z AUTO 33010G20KT 10SM SCT049 BKN060 07/M03 A3008 RMK AO2 PK WND 33027/2126 SLP188 T00721033

More Conditions Fewer Conditions

Pressure 30.09 in
Visibility 10.0 miles
Clouds Scattered Clouds 4900 ft
Mostly Cloudy 6000 ft
Windchill 36 °F
Dew Point 30 °F
Humidity 63%
Rainfall 0.09 in
Snow Depth Not available.
UV 0 out of 12
Pollen .30 out of 12
Air Quality Not available.
Flu Activity Not available.
METAR KBWG 312153Z AUTO 33010G20KT 10SM SCT049 BKN060 07/M03 A3008 RMK AO2 PK WND 33027/2126 SLP188 T00721033

More Conditions Fewer Conditions

10-Day Weather Forecast

Almanac

Astronomy

Oct. 31, 2014 Rise Set
Actual Time
Civil Twilight
Nautical Twilight
Astronomical Twilight
Moon
Length of Visible Light
Length of Day
Tomorrow will be .
, % of the Moon is Illuminated

Today's Extremes

State Highs State Lows

Community

WunderPhotos

Upload Photos

1,766,757 photos uploaded!

WunderBlogs® & News

Nearby

Air Quality

  Air Quality AQ Index Pollutant
Not available.

Snow Depth

Station Depth Elevation

Earthquake Activity

City Distance Mag. Time & Date
Minimum magnitude displayed is 2.5.

Coastal Water Temperatures

Place Temperature

Nearby Weather Stations